Date,TemperatureHighF,TemperatureAvgF,TemperatureLowF,DewpointHighF,DewpointAvgF,DewpointLowF,HumidityHigh,HumidityAvg,HumidityLow,PressureMaxIn,PressureMinIn,WindSpeedMaxMPH,WindSpeedAvgMPH,GustSpeedMaxMPH,PrecipitationSumIn
2013-1-1,48,45,42,46,39,30,93,79,61,30.12,29.96,1,0,4,0.25
2013-1-2,50,45,40,46,38,31,94,77,58,30.19,29.93,7,1,11,0.15
2013-1-3,44,38,28,31,29,24,88,69,58,30.28,30.15,6,0,6,0.00
2013-1-4,52,36,25,29,24,20,90,64,35,30.33,30.21,14,1,14,0.00
2013-1-5,52,38,24,29,24,19,82,59,35,30.39,30.22,0,0,0,0.00
2013-1-6,56,44,36,39,34,28,84,69,49,30.25,30.06,8,0,8,0.03
2013-1-7,53,39,30,33,28,25,85,67,44,30.43,30.21,7,1,10,0.00
2013-1-8,55,41,28,39,33,24,88,73,52,30.46,30.37,0,0,0,0.00
2013-1-9,63,50,37,51,43,33,89,78,62,30.46,30.38,0,0,0,0.00
2013-1-10,63,52,44,48,40,34,93,67,38,30.53,30.41,5,0,5,0.00
2013-1-11,50,45,42,43,41,38,93,88,68,30.41,30.19,7,0,7,0.07
2013-1-12,65,54,45,59,51,43,95,90,79,30.19,30.11,3,0,3,0.00
2013-1-13,73,60,52,64,56,50,96,87,68,30.15,30.06,4,0,4,0.00
2013-1-14,64,61,56,62,59,54,96,94,92,30.19,30.09,8,0,8,0.75
2013-1-15,55,44,41,54,42,39,96,95,93,30.24,30.09,17,1,17,0.50
2013-1-16,49,44,39,48,43,38,96,95,93,30.10,29.97,6,0,6,0.65
2013-1-17,49,42,33,48,41,32,97,95,93,30.19,29.91,11,2,57,2.36
2013-1-18,48,35,28,33,29,26,96,82,49,30.52,30.17,6,0,8,0.11
2013-1-19,56,37,25,36,29,23,93,75,45,30.49,30.15,0,0,0,0.11
2013-1-20,64,44,29,40,31,26,89,64,37,30.16,30.02,0,0,0,0.00
2013-1-21,62,42,29,37,27,16,88,60,34,30.10,29.90,0,0,0,0.00
2013-1-22,37,29,27,17,5,3,44,35,33,30.27,30.00,0,0,0,0.00
2013-1-23,0,0,0,3,3,3,0,0,100,30.35,30.04,0,0,0,0.00
2013-1-24,0,0,0,3,3,3,0,0,100,30.49,29.97,0,0,0,0.00
2013-1-25,72,17,0,42,13,3,84,39,23,30.50,30.11,7,0,7,0.00
2013-1-26,40,31,24,34,27,20,89,84,76,30.39,30.10,4,0,4,0.63
2013-1-27,45,35,25,30,26,20,86,70,54,30.57,30.38,6,0,6,0.00
2013-1-28,50,42,34,41,35,27,90,76,62,30.47,30.24,5,0,7,0.00
2013-1-29,71,55,42,57,49,39,93,81,60,30.25,30.06,4,0,7,0.00
2013-1-30,70,65,57,64,60,54,93,84,69,30.06,29.44,18,3,18,0.85
2013-1-31,57,42,32,54,29,20,91,61,36,30.01,29.49,12,1,12,0.05
2013-2-1,39,32,25,28,13,4,72,47,25,30.37,29.88,12,2,17,2.16
2013-2-2,44,32,20,31,16,8,78,51,33,30.38,30.03,7,0,7,3.60
2013-2-3,52,39,31,32,27,21,89,64,41,30.03,29.86,12,0,12,4.32
2013-2-4,50,38,26,29,23,20,79,57,38,30.15,30.00,6,0,6,4.32
2013-2-5,61,45,34,36,31,26,77,60,37,30.00,29.91,57,0,57,0.72
2013-2-6,60,44,30,37,27,23,89,58,27,30.27,29.99,10,1,10,2.88
2013-2-7,44,38,36,36,32,24,93,77,56,30.33,30.05,8,1,8,1.00
2013-2-8,58,44,35,47,35,26,94,74,41,30.10,29.86,12,3,12,0.15
2013-2-9,54,40,28,26,22,16,76,51,24,30.35,30.09,12,1,12,2.88
2013-2-10,55,41,27,38,25,20,81,56,29,30.47,30.19,9,1,9,0.15
2013-2-11,56,48,42,54,46,38,95,90,81,30.19,29.96,3,0,4,0.06
2013-2-12,60,50,41,48,33,25,95,56,28,30.12,29.94,10,1,10,0.72
2013-2-13,50,45,35,46,40,31,91,85,63,29.98,29.66,8,0,8,0.28
2013-2-14,54,41,30,34,31,27,89,69,45,30.07,29.88,9,0,9,2.16
2013-2-15,62,45,30,40,32,26,90,65,34,30.11,29.94,17,1,17,0.72
2013-2-16,42,37,29,32,27,13,86,68,44,30.00,29.85,12,2,12,4.32
2013-2-17,39,30,24,16,10,6,62,44,28,30.26,29.97,16,3,16,2.88
2013-2-18,55,37,20,25,20,12,76,52,30,30.38,30.20,9,1,10,1.89
2013-2-19,48,40,35,43,32,23,90,75,54,30.22,29.88,57,0,57,0.22
2013-2-20,55,41,26,23,17,10,72,41,18,30.15,30.01,10,1,10,2.52
2013-2-21,56,42,26,24,16,11,64,38,21,30.27,30.11,7,1,7,2.52
2013-2-22,44,36,34,34,32,23,91,83,45,30.33,30.14,5,0,5,0.46
2013-2-23,48,40,34,42,37,32,94,90,80,30.16,29.84,6,0,6,0.25
2013-2-24,61,49,40,43,33,22,94,61,27,30.06,29.83,9,2,9,1.26
2013-2-25,45,39,34,25,23,21,64,54,44,30.23,30.06,7,1,7,1.89
2013-2-26,39,36,32,38,32,23,94,87,59,30.15,29.61,13,1,13,1.17
2013-2-27,59,46,37,42,38,35,94,75,45,29.81,29.66,10,0,10,0.00
2013-2-28,51,42,33,37,28,24,82,60,40,29.90,29.73,9,1,10,0.00
2013-3-1,46,41,36,30,28,25,72,59,49,29.93,29.87,7,1,9,0.00
2013-3-2,49,40,34,29,24,18,61,53,42,29.95,29.83,12,2,12,0.00
2013-3-3,45,35,29,22,17,14,59,48,36,30.01,29.89,12,4,12,0.00
2013-3-4,55,38,25,22,16,13,62,43,23,30.13,29.99,10,1,10,0.00
2013-3-5,50,43,36,41,33,22,93,69,46,30.07,29.61,8,0,8,0.35
2013-3-6,47,40,34,39,28,23,93,66,43,30.11,29.61,24,5,24,0.12
2013-3-7,53,41,31,30,26,22,76,58,39,30.28,30.10,16,4,16,0.00
2013-3-8,57,41,26,28,23,21,81,53,29,30.33,30.21,14,3,14,0.00
2013-3-9,64,45,28,33,28,22,80,54,28,30.36,30.24,7,0,7,0.00
2013-3-10,70,51,34,39,33,28,80,55,30,30.32,30.20,9,0,12,0.00
2013-3-11,68,55,41,52,40,24,82,57,46,30.23,29.90,13,2,13,0.03
2013-3-12,69,57,46,56,46,30,94,69,36,30.00,29.77,12,3,12,0.70
2013-3-13,59,44,34,33,26,16,81,51,29,30.18,30.00,15,3,15,0.00
2013-3-14,55,39,28,21,17,14,61,41,25,30.27,30.14,14,3,14,0.00
2013-3-15,66,47,29,35,28,18,70,49,31,30.20,29.91,8,0,8,0.00
2013-3-16,81,62,44,52,44,33,75,56,32,29.91,29.69,14,0,14,0.00
2013-3-17,57,51,40,50,44,36,90,77,61,30.18,29.87,12,2,12,0.00
2013-3-18,42,39,37,38,37,35,94,91,86,30.18,29.87,7,1,7,0.33
2013-3-19,67,49,35,44,31,13,94,60,20,30.06,29.85,11,2,11,0.00
2013-3-20,62,48,38,23,17,10,39,29,20,30.13,29.79,10,1,10,0.00
2013-3-21,48,38,30,27,15,9,55,40,25,30.00,29.80,13,4,13,0.00
2013-3-22,54,37,23,21,15,10,63,42,24,30.09,29.97,10,2,10,0.00
2013-3-23,60,46,37,30,26,21,61,47,31,30.07,29.91,8,0,8,0.00
2013-3-24,44,39,36,37,34,29,92,82,60,29.95,29.58,11,1,11,0.76
2013-3-25,50,40,33,37,29,22,92,67,40,29.85,29.57,13,1,13,0.04
2013-3-26,48,40,31,28,25,23,73,56,41,30.17,29.85,14,3,14,0.00
2013-3-27,51,39,28,26,22,19,78,54,33,30.27,30.16,17,3,17,0.00
2013-3-28,57,41,27,27,22,19,75,50,28,30.30,30.20,10,2,10,0.00
2013-3-29,64,46,28,31,26,22,77,49,25,30.35,30.18,10,0,10,0.00
2013-3-30,69,53,37,38,32,29,75,49,26,30.25,30.09,10,0,10,0.00
2013-3-31,69,56,49,57,49,38,91,78,59,30.09,29.83,7,0,7,0.67
2013-4-1,74,58,46,51,44,34,94,64,31,30.01,29.85,10,1,10,0.02
2013-4-2,63,50,35,35,27,18,81,46,21,30.18,30.01,10,1,10,0.00
2013-4-3,64,49,36,26,20,17,49,33,21,30.31,30.15,9,1,9,0.00
2013-4-4,48,40,35,34,26,15,92,60,29,30.35,29.99,13,2,13,0.60
2013-4-5,67,49,35,47,38,32,94,69,31,30.06,29.92,9,2,9,0.05
2013-4-6,70,53,36,38,34,31,82,52,29,30.27,30.06,7,1,7,0.00
2013-4-7,76,58,41,48,40,32,76,54,33,30.27,30.11,11,1,11,0.00
2013-4-8,83,65,51,58,50,42,87,62,38,30.18,30.06,8,0,8,0.00
2013-4-9,88,70,54,59,53,48,84,59,33,30.22,30.09,7,0,7,0.00
2013-4-10,90,72,58,62,56,52,83,60,35,30.13,29.98,9,0,9,0.00
2013-4-11,85,71,58,64,59,53,87,67,43,30.01,29.79,3,0,3,0.00
2013-4-12,86,71,59,66,57,39,94,65,36,29.84,29.64,0,0,0,1.45
2013-4-13,78,62,46,45,39,34,75,46,25,30.05,29.84,0,0,0,0.00
2013-4-14,83,64,45,50,42,38,79,49,22,30.13,30.03,0,0,0,0.00
2013-4-15,68,61,55,58,54,50,92,81,66,30.23,30.04,0,0,0,0.26
2013-4-16,83,67,54,64,58,52,92,73,47,30.33,30.20,0,0,0,0.00
2013-4-17,85,70,58,64,58,54,89,69,44,30.25,30.14,57,0,57,0.00
2013-4-18,83,72,63,64,60,56,89,68,43,30.20,30.03,0,0,0,0.00
2013-4-19,78,68,57,67,62,50,92,82,69,30.03,29.75,0,0,0,0.50
2013-4-20,66,54,0,49,34,28,77,47,29,30.29,29.91,0,0,0,0.00
2013-4-21,64,52,43,38,35,30,69,53,37,30.50,30.28,0,0,0,0.00
2013-4-22,66,52,38,38,33,27,82,51,25,30.46,30.27,0,0,0,0.00
2013-4-23,73,58,47,52,45,37,81,63,47,30.30,30.12,0,0,0,0.02
2013-4-24,78,62,49,59,53,46,91,72,50,30.15,30.00,0,0,0,0.00
2013-4-25,73,59,48,56,38,29,80,49,21,30.31,30.05,57,0,57,0.00
2013-4-26,74,58,41,42,37,34,77,50,25,30.45,30.30,0,0,0,0.00
2013-4-27,72,61,55,52,48,42,79,62,46,30.38,30.28,0,0,0,0.00
2013-4-28,57,56,53,54,52,50,94,88,78,30.28,30.07,0,0,0,1.25
2013-4-29,72,61,54,62,56,52,95,86,68,30.08,29.99,0,0,0,0.33
2013-4-30,73,62,56,60,56,52,94,81,61,30.22,30.03,0,0,0,0.00
2013-5-1,68,60,54,58,54,51,91,83,69,30.34,30.21,0,0,0,0.00
2013-5-2,64,59,55,55,52,49,89,80,72,30.36,30.28,0,0,0,0.00
2013-5-3,65,56,49,52,49,43,92,79,60,30.29,30.18,0,0,0,0.00
2013-5-4,65,55,48,50,45,41,87,72,51,30.22,30.09,6,0,6,0.00
2013-5-5,55,53,50,53,48,43,94,83,70,30.11,29.96,12,2,12,0.07
2013-5-6,69,60,54,62,57,53,95,91,79,29.99,29.85,15,1,15,1.17
2013-5-7,75,60,53,60,54,50,95,82,48,29.98,29.88,7,0,7,0.05
2013-5-8,72,60,52,61,55,50,93,84,66,30.04,29.95,5,0,5,0.10
2013-5-9,83,66,50,62,56,49,95,74,44,30.10,30.02,8,0,8,0.00
2013-5-10,86,70,55,65,59,52,91,69,44,30.11,29.97,10,0,10,0.00
2013-5-11,83,71,62,64,61,59,91,72,49,29.99,29.83,6,0,6,0.50
2013-5-12,73,62,54,60,47,33,93,61,32,30.07,29.87,10,1,10,0.03
2013-5-13,70,56,42,42,35,30,80,47,27,30.20,30.06,6,0,6,0.00
2013-5-14,75,58,40,46,40,32,81,53,32,30.28,30.08,9,0,9,0.00
2013-5-15,91,71,52,66,56,43,78,61,40,30.09,29.94,4,0,4,0.00
2013-5-16,87,73,59,64,60,56,89,66,39,30.04,29.96,2,0,2,0.00
2013-5-17,91,74,59,64,60,56,90,65,38,30.12,30.03,7,0,7,0.06
2013-5-18,77,69,65,68,63,60,88,82,70,30.20,30.11,5,0,5,0.10
2013-5-19,79,70,65,70,65,61,91,85,71,30.16,30.08,6,0,6,0.05
2013-5-20,83,72,65,73,66,62,93,84,59,30.15,30.05,4,0,4,0.25
2013-5-21,89,75,64,74,68,62,95,80,52,30.09,29.97,5,0,5,0.02
2013-5-22,89,75,66,71,66,62,92,76,53,30.06,29.93,8,1,8,0.25
2013-5-23,80,70,63,69,64,59,94,84,65,30.01,29.85,6,0,6,0.35
2013-5-24,70,63,55,61,49,34,95,63,31,30.23,29.89,11,2,11,0.00
2013-5-25,77,61,43,47,40,36,84,49,29,30.32,30.16,6,1,6,0.00
2013-5-26,77,63,54,51,47,38,74,56,36,30.31,30.19,5,0,5,0.00
2013-5-27,84,68,53,60,54,49,86,63,40,30.31,30.17,6,0,6,0.00
2013-5-28,88,74,62,67,62,55,89,69,47,30.26,30.16,8,0,8,0.00
2013-5-29,89,75,63,68,62,58,87,68,45,30.27,30.19,7,0,7,0.00
2013-5-30,88,75,62,68,63,59,90,69,42,30.31,30.21,6,0,6,0.00
2013-5-31,89,76,64,70,65,60,90,69,47,30.26,30.14,7,0,7,0.00
2013-6-1,91,78,67,69,65,62,91,68,42,30.16,30.04,8,0,8,0.00
2013-6-2,87,74,68,72,66,63,93,77,57,30.08,29.95,8,0,8,0.40
2013-6-3,88,73,67,73,68,64,94,84,58,30.01,29.88,9,0,9,0.30
2013-6-4,76,69,64,65,63,60,94,81,67,30.14,29.99,6,0,6,0.02
2013-6-5,77,68,63,66,63,60,93,83,66,30.17,30.05,8,0,8,0.05
2013-6-6,76,70,65,72,68,62,95,92,86,30.06,29.85,9,1,9,2.55
2013-6-7,82,71,68,74,68,66,95,91,75,29.88,29.67,3,0,3,0.50
2013-6-8,85,74,63,69,66,61,96,80,54,30.13,29.87,4,0,4,0.42
2013-6-9,92,76,66,73,68,64,94,78,47,30.20,30.09,6,0,6,0.60
2013-6-10,87,74,67,74,69,64,93,86,64,30.13,29.91,8,0,8,0.35
2013-6-11,87,75,66,70,66,63,95,75,48,30.03,29.95,4,0,4,0.03
2013-6-12,93,78,64,77,69,61,91,75,56,30.03,29.92,3,0,3,0.00
2013-6-13,95,77,67,75,70,62,94,79,40,29.93,29.67,7,0,7,0.76
2013-6-14,83,70,58,64,57,54,92,65,41,30.07,29.81,7,1,7,0.00
2013-6-15,86,72,58,65,60,55,91,69,44,30.18,30.07,0,0,0,0.00
2013-6-16,90,76,64,71,65,60,87,70,50,30.16,30.04,4,0,4,0.00
2013-6-17,90,76,70,74,69,64,92,81,56,30.07,29.97,6,0,6,0.15
2013-6-18,86,73,68,74,69,66,94,87,66,30.01,29.84,4,0,4,0.29
2013-6-19,85,74,64,69,65,62,95,77,53,30.17,29.94,57,0,57,0.00
2013-6-20,83,73,65,68,64,62,93,77,57,30.29,30.16,0,0,0,0.00
2013-6-21,86,73,62,65,60,57,87,67,46,30.31,30.22,8,0,8,0.00
2013-6-22,85,73,63,70,64,57,90,75,58,30.28,30.15,4,0,4,0.00
2013-6-23,91,78,68,73,68,65,92,75,48,30.25,30.16,6,0,6,0.00
2013-6-24,92,78,69,75,70,67,93,78,53,30.24,30.13,3,0,3,0.00
2013-6-25,93,79,69,75,70,67,93,77,52,30.17,30.03,4,0,4,0.00
2013-6-26,92,76,67,80,69,65,94,82,55,30.08,29.94,8,0,8,0.50
2013-6-27,89,77,67,75,71,65,95,82,61,29.99,29.77,3,0,3,0.00
2013-6-28,94,78,69,76,71,67,94,80,54,29.81,29.65,8,0,8,0.37
2013-6-29,89,77,69,74,70,67,94,79,54,29.77,29.66,8,0,8,0.02
2013-6-30,89,76,70,74,70,67,93,82,59,29.90,29.74,8,0,8,0.22
2013-7-1,86,75,68,74,69,66,95,83,62,30.03,29.88,8,0,8,0.12
2013-7-2,82,74,71,74,70,68,93,87,74,30.20,30.02,10,1,10,0.20
2013-7-3,84,73,0,76,72,69,96,87,76,30.27,30.16,8,0,8,0.70
2013-7-4,92,78,72,75,72,68,95,84,55,30.29,30.20,18,0,18,0.36
2013-7-5,91,78,71,76,72,69,95,82,60,30.29,30.22,12,0,12,0.10
2013-7-6,90,78,70,74,71,68,95,81,55,30.29,30.15,7,0,7,0.32
2013-7-7,88,78,71,76,72,69,95,83,65,30.23,30.11,0,0,0,0.00
2013-7-8,90,81,70,74,71,68,95,74,53,30.23,30.14,0,0,0,0.20
2013-7-9,92,80,72,77,73,70,94,80,57,30.20,30.09,6,0,6,0.00
2013-7-10,92,79,70,76,71,67,93,79,59,30.14,29.98,5,0,5,0.05
2013-7-11,85,75,70,76,72,68,95,88,74,30.01,29.92,2,0,2,0.45
2013-7-12,81,74,68,70,67,64,95,81,66,30.08,29.93,6,0,6,0.35
2013-7-13,80,73,68,72,68,65,93,86,75,30.18,30.06,5,0,5,0.00
2013-7-14,89,78,71,74,71,68,95,79,56,30.33,30.18,10,1,10,0.06
2013-7-15,90,78,69,74,69,67,94,76,54,30.37,30.29,2,0,2,0.00
2013-7-16,94,78,68,76,71,66,93,78,50,30.33,30.25,3,0,3,0.00
2013-7-17,96,81,73,77,72,70,91,77,49,30.29,30.16,2,0,2,0.00
2013-7-18,96,81,71,78,73,69,92,78,51,30.21,30.09,0,0,0,0.00
2013-7-19,95,82,73,77,74,70,94,78,55,30.15,30.03,4,0,4,0.00
2013-7-20,91,78,72,78,72,68,92,83,58,30.07,29.96,0,0,0,0.12
2013-7-21,94,78,71,77,72,69,94,82,56,30.05,29.97,114,0,114,0.17
2013-7-22,91,78,71,76,72,69,94,82,59,30.01,29.88,4,0,4,0.00
2013-7-23,93,79,69,76,70,67,93,74,49,29.89,29.79,0,0,0,0.00
2013-7-24,94,80,68,72,68,65,91,69,47,29.93,29.80,0,0,0,0.00
2013-7-25,86,75,67,68,66,62,90,73,55,30.08,29.90,5,0,5,0.06
2013-7-26,89,76,67,68,65,64,89,71,48,30.16,30.06,4,0,4,0.00
2013-7-27,73,71,68,70,67,65,94,89,79,30.09,29.98,6,0,6,2.18
2013-7-28,88,75,68,74,70,67,95,84,58,30.05,29.96,1,0,1,0.35
2013-7-29,87,75,66,68,65,61,95,74,45,30.21,30.04,0,0,0,0.80
2013-7-30,88,74,64,68,63,59,84,70,47,30.28,30.18,0,0,0,0.00
2013-7-31,85,74,70,73,68,66,93,82,66,30.20,30.03,5,0,5,0.00
2013-8-1,89,76,70,75,70,68,94,82,58,30.04,29.92,0,0,0,0.00
2013-8-2,90,77,66,71,67,64,94,75,49,30.08,29.97,0,0,0,0.00
2013-8-3,92,78,69,77,70,66,92,78,54,30.07,29.97,0,0,0,0.00
2013-8-4,88,77,69,70,65,60,92,68,41,30.09,29.97,0,0,0,0.01
2013-8-5,88,75,66,69,64,58,80,70,52,30.13,30.03,2,0,2,0.00
2013-8-6,81,72,65,72,67,62,91,84,73,30.10,30.03,6,0,6,0.50
2013-8-7,88,76,69,73,69,66,92,79,54,30.14,30.06,5,0,5,0.00
2013-8-8,89,77,71,77,72,68,92,83,66,30.12,30.04,7,0,7,0.10
2013-8-9,94,79,71,78,72,69,94,82,55,30.10,30.03,7,0,7,0.50
2013-8-10,95,76,71,78,72,67,95,87,50,30.15,30.08,7,0,7,0.70
2013-8-11,92,79,70,77,73,69,96,83,58,30.16,30.07,0,0,0,0.00
2013-8-12,94,80,71,74,72,69,95,79,50,30.11,30.00,4,0,4,0.00
2013-8-13,90,75,70,77,71,66,94,87,61,30.01,29.85,10,0,10,1.00
2013-8-14,79,72,64,69,62,56,94,72,51,30.13,29.91,0,0,0,0.00
2013-8-15,78,67,59,59,56,53,91,71,47,30.22,30.12,0,0,0,0.00
2013-8-16,73,64,57,62,57,54,89,78,63,30.22,30.14,0,0,0,0.00
2013-8-17,67,63,60,63,60,56,95,91,86,30.25,30.17,4,0,4,0.80
2013-8-18,79,70,64,70,65,62,96,87,70,30.27,30.17,0,0,0,0.20
2013-8-19,77,70,66,71,67,64,94,90,80,30.24,30.13,4,0,4,0.88
2013-8-20,83,72,65,72,68,63,96,87,68,30.24,30.15,0,0,0,0.00
2013-8-21,86,75,69,77,71,67,95,88,69,30.27,30.15,0,0,0,0.00
2013-8-22,90,77,70,74,70,66,96,81,57,30.19,30.05,0,0,0,0.25
2013-8-23,88,74,65,73,68,62,94,82,57,30.14,30.00,0,0,0,0.35
2013-8-24,83,70,62,63,60,56,92,72,41,30.34,30.14,0,0,0,0.00
2013-8-25,82,69,59,65,59,57,93,74,49,30.43,30.32,0,0,0,0.00
2013-8-26,86,69,57,65,60,54,92,74,46,30.37,30.15,0,0,0,0.00
2013-8-27,91,75,63,74,67,60,91,77,54,30.17,30.03,0,0,0,0.00
2013-8-28,88,77,69,76,71,66,93,83,67,30.06,29.94,0,0,0,0.00
2013-8-29,91,79,70,74,71,68,93,77,57,30.06,29.92,0,0,0,0.00
2013-8-30,89,76,68,70,68,64,93,76,50,30.11,29.98,0,0,0,0.00
2013-8-31,92,75,67,76,68,64,93,81,56,30.01,29.91,0,0,0,0.28
2013-9-1,90,73,67,78,70,65,95,89,66,29.96,29.85,0,0,0,2.25
2013-9-2,89,76,67,76,70,66,96,85,63,29.96,29.85,0,0,0,0.00
2013-9-3,90,77,69,74,69,62,94,76,53,30.02,29.85,0,0,0,0.00
2013-9-4,86,73,63,68,63,59,89,72,47,30.14,30.02,0,0,0,0.00
2013-9-5,88,73,63,66,61,-24,93,71,34,30.16,30.09,0,0,0,0.00
2013-9-6,82,71,63,62,59,56,87,68,48,30.24,30.14,0,0,0,0.00
2013-9-7,85,70,59,68,62,56,89,77,54,30.18,30.02,0,0,0,0.00
2013-9-8,89,74,63,70,66,61,93,76,49,30.05,29.97,0,0,0,0.00
2013-9-9,88,75,67,73,68,64,93,78,55,30.19,30.04,0,0,0,0.00
2013-9-10,90,76,67,74,69,64,93,78,53,30.28,30.18,0,0,0,0.00
2013-9-11,92,77,67,74,69,64,91,78,55,30.24,30.11,0,0,0,0.00
2013-9-12,92,77,68,74,70,66,93,79,55,30.11,29.88,0,0,0,0.00
2013-9-13,86,73,64,67,59,50,90,64,38,29.98,29.83,0,0,0,0.00
2013-9-14,76,64,55,55,52,48,82,66,45,30.17,29.97,0,0,0,0.00
2013-9-15,81,65,52,62,57,50,90,76,49,30.28,30.15,0,0,0,0.00
2013-9-16,85,71,60,68,62,57,92,73,47,30.24,30.10,0,0,0,0.00
2013-9-17,75,66,59,59,55,51,87,69,48,30.36,30.23,0,0,0,0.00
2013-9-18,75,63,55,56,53,49,84,70,50,30.36,30.21,0,0,0,0.00
2013-9-19,79,67,58,63,58,52,84,74,56,30.23,30.11,0,0,0,0.00
2013-9-20,84,71,64,69,65,61,93,82,58,30.13,29.98,0,0,0,0.25
2013-9-21,78,69,64,71,66,62,95,91,78,30.00,29.77,0,0,0,1.15
2013-9-22,78,66,58,62,57,54,95,75,48,29.96,29.78,0,0,0,0.00
2013-9-23,75,62,55,56,53,50,89,73,49,30.11,29.96,0,0,0,0.00
2013-9-24,80,65,56,62,57,53,89,77,53,30.13,29.98,0,0,0,0.00
2013-9-25,69,62,56,63,58,53,93,87,78,29.99,29.92,0,0,0,0.00
2013-9-26,74,64,57,62,57,51,95,78,51,30.09,29.93,0,0,0,0.00
2013-9-27,74,62,52,60,54,50,92,75,51,30.23,30.09,0,0,0,0.00
2013-9-28,72,60,53,58,52,50,93,77,55,30.31,30.22,0,0,0,0.00
2013-9-29,74,61,53,59,53,49,89,76,53,30.22,30.08,0,0,0,0.00
2013-9-30,77,62,52,60,53,49,92,75,46,30.14,30.03,0,0,0,0.00
2013-10-1,83,66,54,64,57,52,92,74,47,30.17,30.06,0,0,0,0.00
2013-10-2,84,68,56,65,59,54,92,75,46,30.19,30.09,0,0,0,0.00
2013-10-3,86,70,60,67,61,57,92,75,52,30.18,30.09,0,0,0,0.00
2013-10-4,64,62,60,59,58,57,90,88,86,30.15,30.13,0,0,0,0.00
2013-10-7,63,60,60,55,53,51,81,76,69,30.06,29.99,0,0,0,1.10
2013-10-8,68,59,53,51,48,45,75,66,51,30.26,30.06,0,0,0,0.00
2013-10-9,67,58,51,53,48,45,83,70,55,30.26,30.16,0,0,0,0.00
2013-10-10,69,61,54,61,55,47,88,79,72,30.16,30.00,0,0,0,0.00
2013-10-11,75,67,62,62,60,58,87,77,62,30.02,29.95,0,0,0,0.00
2013-10-12,73,66,57,63,60,54,91,82,66,30.14,30.00,0,0,0,0.00
2013-10-13,68,63,61,62,60,58,94,89,82,30.27,30.13,0,0,0,0.00
2013-10-14,68,62,58,60,58,55,94,87,74,30.29,30.21,0,0,0,0.00
2013-10-15,72,62,53,58,54,51,94,77,55,30.25,30.10,0,0,0,0.00
2013-10-16,76,64,55,62,57,52,90,78,60,30.12,29.98,0,0,0,0.00
2013-10-17,70,64,59,64,61,56,95,88,79,30.01,29.88,0,0,0,0.00
2013-10-18,69,60,51,63,53,48,95,78,51,30.09,29.93,0,0,0,0.00
2013-10-19,62,57,53,58,54,50,94,90,87,30.02,29.87,0,0,0,0.01
2013-10-20,63,52,44,53,42,36,95,69,41,30.14,29.96,0,0,0,0.00
2013-10-21,69,52,40,52,45,37,91,77,53,30.18,30.02,0,0,0,0.00
2013-10-22,69,59,54,57,53,49,92,81,58,30.03,29.83,0,0,0,0.00
2013-10-23,67,56,44,56,44,30,93,68,38,30.06,29.75,0,0,0,0.00
2013-10-24,59,46,34,37,33,29,86,62,42,30.20,30.04,0,0,0,0.00
2013-10-25,54,44,34,35,31,27,84,62,42,30.39,30.20,0,0,0,0.00
2013-10-26,57,43,29,36,31,25,87,65,41,30.37,30.09,0,0,0,0.00
2013-10-27,67,53,41,44,40,36,85,64,39,30.15,30.06,0,0,0,0.00
2013-10-28,70,56,45,55,48,42,90,78,56,30.29,30.14,0,0,0,0.00
2013-10-29,73,60,50,56,52,48,92,77,52,30.36,30.26,0,0,0,0.00
2013-10-30,75,63,54,60,55,51,90,77,55,30.31,30.17,0,0,0,0.00
2013-10-31,73,64,56,62,56,53,90,77,61,30.20,29.91,0,0,0,0.00
2013-11-1,68,64,56,66,60,54,95,87,78,29.92,29.70,0,0,0,0.00
2013-11-2,69,58,51,57,48,36,96,71,41,30.01,29.75,0,0,0,0.00
2013-11-3,61,48,37,43,36,34,90,64,39,30.38,30.01,0,0,0,0.00
2013-11-4,56,45,36,35,32,30,80,61,41,30.56,30.37,0,0,0,0.00
2013-11-5,58,47,35,48,37,28,89,69,54,30.58,30.44,0,0,0,0.00
2013-11-6,70,56,48,54,48,43,90,75,54,30.45,30.14,0,0,0,0.00
2013-11-7,64,53,43,56,45,32,93,75,46,30.16,29.99,0,0,0,0.00
2013-11-8,56,43,32,35,28,23,85,57,32,30.34,30.16,0,0,0,0.00
2013-11-9,61,44,30,34,30,26,87,62,33,30.39,30.20,0,0,0,0.00
2013-11-10,70,51,34,42,32,24,85,53,27,30.28,30.10,0,0,0,0.00
2013-11-11,60,45,32,32,28,24,78,53,31,30.37,30.16,0,0,0,0.00
2013-11-12,60,42,29,38,29,17,83,62,43,30.46,30.07,0,0,0,0.05
2013-11-13,46,33,25,21,18,17,74,55,33,30.55,30.45,57,0,57,0.00
2013-11-14,59,38,23,28,22,18,79,56,28,30.47,30.32,0,0,0,0.00
2013-11-15,62,46,29,46,32,21,85,62,35,30.36,30.21,0,0,0,0.00
2013-11-16,62,55,50,55,51,46,91,86,77,30.30,30.22,0,0,0,0.00
2013-11-17,68,60,55,61,57,53,95,89,75,30.24,29.90,0,0,0,0.10
2013-11-18,74,62,50,63,49,28,96,66,33,30.04,29.84,0,0,0,0.12
2013-11-19,56,47,40,29,26,24,55,45,30,30.31,30.03,0,0,0,0.00
2013-11-20,52,42,35,31,28,24,66,56,41,30.48,30.30,0,0,0,0.00
2013-11-21,58,48,42,43,38,30,74,67,57,30.52,30.40,0,0,0,0.00
2013-11-22,66,57,49,56,50,42,90,77,68,30.41,30.12,0,0,0,0.02
2013-11-23,61,53,39,55,38,17,94,62,31,30.23,30.09,0,0,0,0.02
2013-11-24,39,32,25,18,8,2,47,36,24,30.53,30.23,57,0,57,0.00
2013-11-25,42,32,20,16,10,5,60,42,28,30.56,30.39,0,0,0,0.00
2013-11-26,44,38,32,42,34,21,95,88,56,30.29,29.62,0,0,0,2.50
2013-11-27,45,38,27,44,29,13,95,72,53,30.20,29.56,0,0,0,0.34
2013-11-28,44,31,21,21,17,12,78,59,34,30.47,30.20,57,0,57,0.00
2013-11-29,51,35,23,28,22,19,84,61,36,30.62,30.45,0,0,0,0.00
2013-11-30,47,34,27,26,22,20,76,64,41,30.66,30.37,0,0,0,0.00
2013-12-1,56,37,24,33,27,20,86,68,41,30.38,30.04,0,0,0,0.00
2013-12-2,59,43,28,40,33,25,88,69,47,30.04,29.85,0,0,0,0.00
2013-12-3,60,49,35,50,42,32,88,78,66,30.00,29.88,0,0,0,0.00
2013-12-4,60,54,50,56,52,46,95,91,85,30.10,29.98,0,0,0,0.13
2013-12-5,65,62,57,63,60,56,96,95,91,30.13,30.03,0,0,0,0.25
2013-12-6,76,69,64,66,63,61,96,82,62,30.05,29.98,0,0,0,0.50
2013-12-7,67,51,43,62,44,35,94,79,60,30.46,30.02,0,0,0,0.46
2013-12-8,43,35,32,36,31,29,93,85,70,30.47,30.28,0,0,0,0.20
2013-12-9,43,38,33,41,36,32,94,93,92,30.28,30.07,0,0,0,0.45
2013-12-10,50,41,28,45,36,23,95,83,57,30.32,29.93,0,0,0,0.35
2013-12-11,49,34,23,29,25,20,90,72,44,30.45,30.29,0,0,0,0.00
2013-12-12,44,35,27,26,19,13,82,52,32,30.42,30.29,0,0,0,0.00
2013-12-13,50,35,23,29,22,16,79,60,36,30.38,30.26,0,0,0,0.00
2013-12-14,41,38,36,36,33,29,93,82,68,30.29,29.80,0,0,0,0.80
2013-12-15,49,40,30,41,33,25,94,77,51,30.10,29.75,0,0,0,0.06
2013-12-16,55,40,27,36,30,24,89,71,44,30.18,30.08,0,0,0,0.00
2013-12-17,62,45,31,39,33,28,89,67,42,30.13,29.89,0,0,0,0.00
2013-12-18,49,39,31,29,21,18,64,49,32,30.28,30.06,0,0,0,0.00
2013-12-19,62,40,27,31,25,20,79,58,29,30.32,30.21,0,0,0,0.00
2013-12-22,63,62,61,62,61,59,96,95,94,30.11,30.04,0,0,0,1.38
2013-12-23,63,56,42,62,53,34,96,88,72,30.20,30.01,0,0,0,1.48
2013-12-24,45,37,27,34,24,13,77,60,41,30.47,30.19,0,0,0,0.00
2013-12-25,40,29,21,16,13,11,68,52,34,30.55,30.40,0,0,0,0.00
2013-12-31,50,42,32,36,29,23,91,65,37,30.32,30.14,0,0,0,0.00